createdAt,value
2022-08-20T00:00:53.382Z,21.10
2022-08-20T00:03:32.991Z,21.10
2022-08-20T00:06:10.432Z,21.10
2022-08-20T00:08:38.149Z,21.10
2022-08-20T00:11:14.472Z,21.00
2022-08-20T00:13:54.462Z,21.10
2022-08-20T00:16:29.486Z,21.10
2022-08-20T00:19:03.455Z,21.10
2022-08-20T00:21:31.423Z,21.00
2022-08-20T00:23:58.393Z,21.00
2022-08-20T00:26:31.392Z,21.00
2022-08-20T00:28:58.036Z,21.00
2022-08-20T00:31:24.717Z,21.00
2022-08-20T00:33:58.449Z,21.00
2022-08-20T00:36:32.778Z,21.00
2022-08-20T00:39:06.399Z,21.00
2022-08-20T00:41:33.083Z,21.00
2022-08-20T00:44:14.463Z,20.90
2022-08-20T00:46:42.391Z,21.00
2022-08-20T00:49:14.044Z,20.90
2022-08-20T00:51:59.547Z,20.90
2022-08-20T00:54:46.454Z,20.90
2022-08-20T00:58:00.680Z,20.90
2022-08-20T01:00:33.893Z,20.80
2022-08-20T01:03:08.408Z,20.80
2022-08-20T01:05:47.476Z,20.70
2022-08-20T01:08:23.446Z,20.70
2022-08-20T01:10:53.679Z,20.70
2022-08-20T01:13:30.406Z,20.60
2022-08-20T01:15:58.244Z,20.60
2022-08-20T01:18:27.362Z,20.70
2022-08-20T01:21:02.479Z,20.70
2022-08-20T01:24:07.473Z,20.60
2022-08-20T01:26:47.455Z,20.60
2022-08-20T01:29:25.470Z,20.60
2022-08-20T01:31:52.162Z,20.60
2022-08-20T01:34:27.425Z,20.60
2022-08-20T01:36:56.329Z,20.60
2022-08-20T01:39:36.528Z,20.50
2022-08-20T01:42:17.828Z,20.50
2022-08-20T01:44:53.416Z,20.50
2022-08-20T01:47:38.501Z,20.50
2022-08-20T01:50:24.645Z,20.50
2022-08-20T01:53:24.477Z,20.50
2022-08-20T01:55:57.410Z,20.50
2022-08-20T01:58:31.400Z,20.40
2022-08-20T02:01:05.618Z,20.40
2022-08-20T02:03:37.516Z,20.30
2022-08-20T02:06:13.429Z,20.30
2022-08-20T02:08:40.059Z,20.30
2022-08-20T02:11:20.397Z,20.30
2022-08-20T02:13:49.614Z,20.30
2022-08-20T02:16:22.478Z,20.20
2022-08-20T02:18:54.277Z,20.20
2022-08-20T02:21:34.499Z,20.20
2022-08-20T02:24:07.467Z,20.10
2022-08-20T02:26:37.795Z,20.10
2022-08-20T02:29:16.424Z,20.20
2022-08-20T02:32:32.668Z,20.10
2022-08-20T02:34:38.418Z,20.10
2022-08-20T02:37:06.914Z,20.10
2022-08-20T02:39:40.455Z,20.00
2022-08-20T02:42:07.266Z,20.00
2022-08-20T02:44:40.453Z,20.00
2022-08-20T02:47:14.482Z,20.00
2022-08-20T02:49:41.159Z,20.00
2022-08-20T02:52:13.833Z,20.00
2022-08-20T02:54:47.500Z,20.00
2022-08-20T02:57:22.440Z,20.00
2022-08-20T02:59:58.457Z,20.00
2022-08-20T03:02:25.290Z,20.00
2022-08-20T03:04:58.480Z,20.00
2022-08-20T03:07:25.218Z,20.00
2022-08-20T03:09:51.837Z,20.00
2022-08-20T03:12:25.483Z,20.00
2022-08-20T03:14:52.100Z,20.00
2022-08-20T03:17:18.744Z,19.90
2022-08-20T03:19:51.466Z,19.90
2022-08-20T03:22:18.086Z,19.90
2022-08-20T03:24:51.484Z,19.90
2022-08-20T03:27:21.585Z,19.90
2022-08-20T03:29:59.486Z,19.90
2022-08-20T03:32:26.712Z,19.90
2022-08-20T03:34:53.950Z,19.90
2022-08-20T03:37:27.515Z,19.90
2022-08-20T03:40:00.530Z,19.90
2022-08-20T03:42:27.402Z,19.90
2022-08-20T03:45:00.472Z,19.80
2022-08-20T03:47:27.943Z,19.80
2022-08-20T03:50:06.459Z,19.80
2022-08-20T03:52:39.438Z,19.80
2022-08-20T03:55:14.420Z,19.80
2022-08-20T03:57:58.625Z,19.80
2022-08-20T04:00:43.471Z,19.70
2022-08-20T04:03:10.985Z,19.70
2022-08-20T04:05:40.703Z,19.70
2022-08-20T04:08:23.417Z,19.70
2022-08-20T04:10:51.413Z,19.70
2022-08-20T04:13:27.492Z,19.60
2022-08-20T04:15:57.566Z,19.60
2022-08-20T04:18:32.462Z,19.70
2022-08-20T04:20:59.092Z,19.70
2022-08-20T04:23:32.480Z,19.70
2022-08-20T04:26:05.434Z,19.70
2022-08-20T04:28:33.703Z,19.70
2022-08-20T04:31:01.303Z,19.70
2022-08-20T04:33:38.485Z,19.70
2022-08-20T04:36:06.237Z,19.60
2022-08-20T04:38:49.908Z,19.70
2022-08-20T04:41:25.480Z,19.70
2022-08-20T04:43:54.471Z,19.70
2022-08-20T04:46:23.850Z,19.70
2022-08-20T04:48:57.498Z,19.70
2022-08-20T04:51:45.490Z,19.70
2022-08-20T04:54:14.504Z,19.70
2022-08-20T04:56:47.428Z,19.70
2022-08-20T04:59:14.737Z,19.70
2022-08-20T05:01:48.654Z,19.80
2022-08-20T05:04:15.298Z,19.70
2022-08-20T05:06:41.953Z,19.80
2022-08-20T05:09:15.430Z,19.80
2022-08-20T05:11:50.437Z,19.80
2022-08-20T05:14:17.073Z,19.80
2022-08-20T05:16:43.708Z,19.90
2022-08-20T05:19:19.424Z,19.90
2022-08-20T05:21:46.038Z,19.90
2022-08-20T05:24:12.956Z,20.00
2022-08-20T05:26:46.427Z,20.00
2022-08-20T05:29:13.149Z,20.00
2022-08-20T05:31:39.794Z,20.00
2022-08-20T05:34:16.449Z,20.10
2022-08-20T05:36:59.382Z,20.00
2022-08-20T05:39:37.371Z,20.10
2022-08-20T05:42:04.410Z,20.10
2022-08-20T05:44:31.460Z,20.10
2022-08-20T05:47:04.501Z,20.10
2022-08-20T05:49:31.577Z,20.10
2022-08-20T05:52:12.429Z,20.10
2022-08-20T05:54:39.855Z,20.10
2022-08-20T05:57:13.521Z,20.10
2022-08-20T05:59:40.322Z,20.00
2022-08-20T06:02:33.446Z,20.00
2022-08-20T06:05:00.517Z,20.00
2022-08-20T06:07:27.154Z,20.00
2022-08-20T06:10:00.433Z,20.00
2022-08-20T06:12:27.082Z,20.00
2022-08-20T06:15:00.268Z,20.10
2022-08-20T06:17:39.425Z,20.00
2022-08-20T06:20:15.495Z,20.00
2022-08-20T06:22:49.437Z,20.00
2022-08-20T06:25:16.112Z,20.00
2022-08-20T06:27:50.504Z,20.00
2022-08-20T06:30:18.045Z,20.00
2022-08-20T06:32:52.489Z,20.10
2022-08-20T06:35:20.094Z,20.10
2022-08-20T06:37:47.453Z,20.00
2022-08-20T06:40:26.462Z,20.00
2022-08-20T06:42:53.187Z,20.00
2022-08-20T06:45:32.494Z,20.00
2022-08-20T06:48:01.267Z,20.00
2022-08-20T06:50:47.972Z,20.00
2022-08-20T06:53:31.435Z,20.00
2022-08-20T06:55:59.290Z,20.00
2022-08-20T06:58:38.260Z,20.00
2022-08-20T07:01:16.576Z,20.00
2022-08-20T07:03:55.359Z,20.00
2022-08-20T07:06:25.333Z,20.00
2022-08-20T07:08:58.527Z,20.00
2022-08-20T07:11:28.212Z,19.90
2022-08-20T07:13:56.767Z,20.00
2022-08-20T07:16:30.452Z,20.00
2022-08-20T07:18:58.225Z,20.00
2022-08-20T07:21:25.625Z,20.00
2022-08-20T07:23:59.481Z,20.00
2022-08-20T07:26:26.122Z,20.00
2022-08-20T07:28:53.121Z,20.00
2022-08-20T07:31:44.521Z,20.00
2022-08-20T07:34:14.804Z,20.00
2022-08-20T07:36:48.488Z,20.00
2022-08-20T07:39:21.466Z,20.10
2022-08-20T07:42:02.962Z,20.00
2022-08-20T07:44:37.512Z,20.00
2022-08-20T07:47:13.530Z,20.10
2022-08-20T07:49:46.497Z,20.10
2022-08-20T07:52:33.435Z,20.00
2022-08-20T07:55:06.504Z,20.00
2022-08-20T07:57:39.551Z,20.00
2022-08-20T08:00:08.884Z,20.00
2022-08-20T08:02:42.448Z,20.10
2022-08-20T08:05:10.006Z,20.00
2022-08-20T08:07:44.483Z,20.10
2022-08-20T08:10:17.038Z,20.00
2022-08-20T08:12:54.524Z,20.00
2022-08-20T08:15:28.807Z,20.00
2022-08-20T08:18:07.535Z,20.00
2022-08-20T08:20:48.506Z,20.00
2022-08-20T08:23:24.859Z,20.00
2022-08-20T08:25:59.277Z,20.00
2022-08-20T08:28:36.511Z,20.10
2022-08-20T08:31:03.262Z,20.10
2022-08-20T08:33:38.485Z,20.10
2022-08-20T08:36:11.285Z,20.10
2022-08-20T08:38:47.519Z,20.10
2022-08-20T08:41:31.889Z,20.10
2022-08-20T08:44:31.501Z,20.10
2022-08-20T08:47:20.499Z,20.20
2022-08-20T08:49:48.116Z,20.30
2022-08-20T08:52:30.502Z,20.30
2022-08-20T08:55:18.489Z,20.40
2022-08-20T08:57:53.520Z,20.30
2022-08-20T09:00:21.734Z,20.30
2022-08-20T09:03:14.538Z,20.30
2022-08-20T09:05:59.502Z,20.30
2022-08-20T09:08:31.126Z,20.30
2022-08-20T09:11:12.538Z,20.30
2022-08-20T09:13:45.446Z,20.40
2022-08-20T09:16:13.251Z,20.40
2022-08-20T09:18:40.860Z,20.40
2022-08-20T09:21:14.521Z,20.40
2022-08-20T09:23:42.112Z,20.50
2022-08-20T09:26:15.511Z,20.50
2022-08-20T09:28:52.126Z,20.60
2022-08-20T09:31:25.462Z,20.60
2022-08-20T09:33:53.008Z,20.70
2022-08-20T09:36:32.154Z,20.70
2022-08-20T09:38:59.562Z,20.70
2022-08-20T09:41:26.184Z,20.70
2022-08-20T09:43:59.497Z,20.70
2022-08-20T09:46:27.407Z,20.80
2022-08-20T09:49:01.516Z,20.80
2022-08-20T09:51:48.456Z,20.80
2022-08-20T09:54:21.438Z,20.80
2022-08-20T09:56:48.757Z,20.70
2022-08-20T09:59:16.302Z,20.70
2022-08-20T10:01:49.552Z,20.90
2022-08-20T10:04:16.214Z,20.90
2022-08-20T10:06:43.120Z,21.00
2022-08-20T10:09:16.554Z,21.20
2022-08-20T10:11:49.505Z,21.20
2022-08-20T10:14:16.130Z,21.30
2022-08-20T10:16:49.456Z,21.30
2022-08-20T10:19:16.590Z,21.40
2022-08-20T10:21:43.310Z,21.30
2022-08-20T10:24:16.470Z,21.40
2022-08-20T10:26:43.094Z,21.50
2022-08-20T10:29:16.480Z,21.50
2022-08-20T10:31:50.460Z,21.60
2022-08-20T10:34:17.173Z,21.70
2022-08-20T10:36:43.931Z,21.70
2022-08-20T10:39:17.529Z,21.80
2022-08-20T10:41:44.162Z,21.80
2022-08-20T10:44:10.774Z,21.80
2022-08-20T10:46:44.528Z,21.80
2022-08-20T10:49:12.173Z,21.80
2022-08-20T10:51:45.474Z,21.90
2022-08-20T10:54:27.479Z,21.90
2022-08-20T10:56:54.105Z,21.80
2022-08-20T10:59:20.751Z,21.90
2022-08-20T11:01:53.530Z,21.80
2022-08-20T11:04:20.197Z,21.80
2022-08-20T11:06:53.542Z,21.90
2022-08-20T11:09:20.154Z,21.90
2022-08-20T11:11:53.468Z,21.90
2022-08-20T11:14:26.538Z,21.90
2022-08-20T11:16:59.507Z,21.90
2022-08-20T11:19:26.174Z,21.90
2022-08-20T11:21:59.525Z,22.00
2022-08-20T11:24:26.158Z,22.10
2022-08-20T11:26:53.389Z,22.10
2022-08-20T11:29:33.830Z,22.10
2022-08-20T11:32:00.790Z,22.20
2022-08-20T11:34:27.554Z,22.20
2022-08-20T11:37:00.499Z,22.20
2022-08-20T11:39:27.161Z,22.20
2022-08-20T11:42:14.524Z,22.20
2022-08-20T11:44:47.866Z,22.20
2022-08-20T11:47:34.534Z,22.20
2022-08-20T11:50:12.511Z,22.20
2022-08-20T11:52:45.501Z,22.20
2022-08-20T11:55:21.536Z,22.20
2022-08-20T11:58:03.473Z,22.10
2022-08-20T12:00:38.483Z,22.20
2022-08-20T12:03:08.866Z,22.20
2022-08-20T12:05:47.485Z,22.20
2022-08-20T12:08:27.146Z,22.20
2022-08-20T12:11:05.525Z,22.20
2022-08-20T12:13:47.535Z,22.10
2022-08-20T12:16:23.464Z,22.10
2022-08-20T12:18:50.169Z,22.10
2022-08-20T12:21:23.482Z,22.10
2022-08-20T12:23:50.124Z,22.10
2022-08-20T12:26:23.478Z,22.10
2022-08-20T12:28:50.106Z,22.10
2022-08-20T12:31:16.744Z,22.10
2022-08-20T12:33:49.540Z,22.20
2022-08-20T12:36:22.516Z,22.10
2022-08-20T12:38:55.477Z,22.20
2022-08-20T12:41:29.672Z,22.20
2022-08-20T12:43:56.322Z,22.20
2022-08-20T12:46:22.953Z,22.20
2022-08-20T12:48:56.538Z,22.20
2022-08-20T12:51:29.573Z,22.30
2022-08-20T12:54:02.904Z,22.30
2022-08-20T12:56:36.541Z,22.30
2022-08-20T12:59:03.194Z,22.30
2022-08-20T13:01:36.568Z,22.30
2022-08-20T13:04:03.868Z,22.30
2022-08-20T13:06:30.489Z,22.20
2022-08-20T13:09:03.465Z,22.20
2022-08-20T13:11:36.561Z,22.20
2022-08-20T13:14:03.746Z,22.30
2022-08-20T13:16:37.568Z,22.30
2022-08-20T13:19:10.553Z,22.30
2022-08-20T13:21:37.207Z,22.30
2022-08-20T13:24:04.344Z,22.20
2022-08-20T13:26:37.580Z,22.20
2022-08-20T13:29:05.214Z,22.20
2022-08-20T13:31:31.828Z,22.10
2022-08-20T13:34:04.538Z,22.10
2022-08-20T13:36:31.204Z,22.10
2022-08-20T13:38:57.840Z,22.10
2022-08-20T13:41:31.520Z,22.10
2022-08-20T13:43:58.170Z,22.10
2022-08-20T13:46:31.529Z,22.10
2022-08-20T13:48:58.154Z,22.10
2022-08-20T13:51:31.532Z,22.10
2022-08-20T13:54:06.494Z,22.10
2022-08-20T13:56:44.544Z,22.20
2022-08-20T13:59:12.428Z,22.20
2022-08-20T14:01:45.614Z,22.20
2022-08-20T14:04:12.282Z,22.10
2022-08-20T14:06:38.937Z,22.10
2022-08-20T14:09:12.543Z,22.10
2022-08-20T14:11:39.174Z,22.10
2022-08-20T14:14:12.524Z,22.10
2022-08-20T14:16:46.491Z,22.00
2022-08-20T14:19:19.532Z,22.00
2022-08-20T14:21:46.165Z,21.90
2022-08-20T14:24:12.772Z,21.80
2022-08-20T14:26:45.477Z,21.80
2022-08-20T14:29:12.096Z,21.70
2022-08-20T14:31:45.565Z,21.60
2022-08-20T14:34:18.518Z,21.60
2022-08-20T14:36:51.604Z,21.60
2022-08-20T14:39:20.457Z,21.60
2022-08-20T14:41:47.321Z,21.50
2022-08-20T14:44:20.557Z,21.40
2022-08-20T14:46:47.218Z,21.40
2022-08-20T14:49:20.538Z,21.30
2022-08-20T14:52:07.457Z,21.30
2022-08-20T14:54:41.574Z,21.20
2022-08-20T14:57:15.537Z,21.20
2022-08-20T14:59:42.910Z,21.10
2022-08-20T15:02:18.511Z,21.20
2022-08-20T15:04:54.225Z,21.20
2022-08-20T15:07:37.566Z,21.10
2022-08-20T15:10:16.489Z,21.10
2022-08-20T15:12:43.428Z,20.90
2022-08-20T15:15:19.493Z,20.90
2022-08-20T15:17:56.485Z,20.80
2022-08-20T15:20:33.548Z,20.80
2022-08-20T15:23:07.502Z,20.80
2022-08-20T15:25:36.665Z,20.70
2022-08-20T15:28:11.590Z,20.70
2022-08-20T15:30:42.118Z,20.60
2022-08-20T15:33:10.356Z,20.50
2022-08-20T15:35:43.596Z,20.50
2022-08-20T15:38:16.500Z,20.40
2022-08-20T15:40:49.563Z,20.40
2022-08-20T15:43:16.192Z,20.40
2022-08-20T15:45:42.850Z,20.30
2022-08-20T15:48:25.558Z,20.30
2022-08-20T15:51:21.542Z,20.30
2022-08-20T15:54:10.485Z,20.20
2022-08-20T15:57:21.693Z,20.20
2022-08-20T16:00:15.747Z,20.20
2022-08-20T16:03:17.580Z,20.10
2022-08-20T16:05:53.218Z,20.20
2022-08-20T16:08:38.575Z,20.10
2022-08-20T16:11:31.557Z,20.10
2022-08-20T16:14:10.680Z,20.10
2022-08-20T16:17:14.488Z,20.00
2022-08-20T16:20:01.953Z,20.10
2022-08-20T16:22:37.568Z,20.10
2022-08-20T16:25:11.570Z,20.00
2022-08-20T16:28:26.511Z,20.00
2022-08-20T16:31:00.701Z,20.00
2022-08-20T16:34:32.924Z,20.10
2022-08-20T16:37:06.321Z,20.10
2022-08-20T16:39:49.716Z,20.10
2022-08-20T16:42:20.969Z,20.00
2022-08-20T16:44:56.605Z,20.00
2022-08-20T16:47:37.573Z,20.00
2022-08-20T16:50:12.214Z,20.00
2022-08-20T16:52:53.638Z,20.00
2022-08-20T16:55:27.026Z,20.00
2022-08-20T16:58:01.513Z,20.00
2022-08-20T17:00:35.636Z,20.00
2022-08-20T17:03:40.122Z,20.00
2022-08-20T17:06:40.565Z,20.00
2022-08-20T17:09:11.680Z,20.00
2022-08-20T17:11:45.516Z,20.00
2022-08-20T17:14:18.810Z,20.00
2022-08-20T17:16:59.554Z,20.00
2022-08-20T17:19:30.409Z,20.00
2022-08-20T17:22:15.565Z,20.00
2022-08-20T17:24:48.513Z,20.00
2022-08-20T17:27:33.036Z,20.00
2022-08-20T17:30:41.566Z,20.00
2022-08-20T17:33:27.540Z,20.00
2022-08-20T17:36:00.697Z,20.00
2022-08-20T17:38:47.507Z,19.90
2022-08-20T17:41:29.379Z,19.90
2022-08-20T17:44:26.607Z,20.00
2022-08-20T17:46:54.044Z,20.00
2022-08-20T17:49:40.565Z,20.00
2022-08-20T17:52:25.542Z,19.90
2022-08-20T17:55:08.524Z,19.90
2022-08-20T17:57:38.501Z,19.80
2022-08-20T18:00:20.577Z,19.80
2022-08-20T18:02:47.241Z,19.80
2022-08-20T18:05:19.951Z,19.80
2022-08-20T18:08:19.501Z,19.80
2022-08-20T18:11:03.564Z,19.80
2022-08-20T18:13:48.409Z,19.70
2022-08-20T18:16:26.288Z,19.70
2022-08-20T18:19:08.700Z,19.70
2022-08-20T18:22:08.388Z,19.70
2022-08-20T18:25:15.585Z,19.80
2022-08-20T18:27:54.568Z,19.70
2022-08-20T18:30:30.562Z,19.70
2022-08-20T18:33:15.515Z,19.70
2022-08-20T18:35:46.314Z,19.60
2022-08-20T18:38:28.510Z,19.70
2022-08-20T18:41:10.296Z,19.70
2022-08-20T18:43:44.585Z,19.70
2022-08-20T18:46:29.561Z,19.70
2022-08-20T18:48:59.501Z,19.70
2022-08-20T18:51:42.518Z,19.70
2022-08-20T18:54:41.509Z,19.70
2022-08-20T18:57:25.306Z,19.70
2022-08-20T19:00:06.556Z,19.70
2022-08-20T19:02:37.161Z,19.70
2022-08-20T19:05:15.622Z,19.70
2022-08-20T19:07:49.074Z,19.70
2022-08-20T19:10:53.589Z,19.70
2022-08-20T19:13:46.215Z,19.60
2022-08-20T19:16:26.584Z,19.60
2022-08-20T19:18:55.276Z,19.60
2022-08-20T19:21:38.587Z,19.60
2022-08-20T19:24:13.522Z,19.60
2022-08-20T19:26:48.237Z,19.60
2022-08-20T19:29:27.590Z,19.60
2022-08-20T19:32:03.881Z,19.60
2022-08-20T19:34:38.585Z,19.60
2022-08-20T19:37:34.327Z,19.60
2022-08-20T19:40:30.570Z,19.60
2022-08-20T19:43:06.614Z,19.60
2022-08-20T19:45:40.817Z,19.60
2022-08-20T19:48:14.588Z,19.60
2022-08-20T19:51:19.560Z,19.50
2022-08-20T19:54:06.510Z,19.50
2022-08-20T19:56:47.526Z,19.50
2022-08-20T19:59:27.594Z,19.50
2022-08-20T20:02:01.533Z,19.50
2022-08-20T20:04:54.996Z,19.50
2022-08-20T20:07:27.736Z,19.50
2022-08-20T20:10:03.529Z,19.50
2022-08-20T20:12:33.090Z,19.50
2022-08-20T20:15:06.539Z,19.50
2022-08-20T20:17:35.813Z,19.50
2022-08-20T20:20:28.608Z,19.40
2022-08-20T20:23:06.661Z,19.40
2022-08-20T20:25:40.576Z,19.40
2022-08-20T20:28:18.956Z,19.50
2022-08-20T20:30:53.528Z,19.50
2022-08-20T20:33:44.305Z,19.50
2022-08-20T20:36:29.964Z,19.40
2022-08-20T20:39:05.517Z,19.40
2022-08-20T20:41:34.749Z,19.40
2022-08-20T20:44:25.560Z,19.40
2022-08-20T20:47:03.557Z,19.40
2022-08-20T20:49:55.528Z,19.40
2022-08-20T20:52:35.552Z,19.40
2022-08-20T20:55:09.252Z,19.40
2022-08-20T20:57:42.579Z,19.40
2022-08-20T21:00:13.859Z,19.40
2022-08-20T21:02:40.935Z,19.40
2022-08-20T21:05:14.526Z,19.40
2022-08-20T21:07:53.346Z,19.40
2022-08-20T21:10:36.541Z,19.30
2022-08-20T21:13:04.297Z,19.30
2022-08-20T21:15:32.862Z,19.30
2022-08-20T21:18:08.525Z,19.30
2022-08-20T21:20:42.540Z,19.30
2022-08-20T21:23:09.181Z,19.20
2022-08-20T21:25:42.593Z,19.30
2022-08-20T21:28:09.465Z,19.20
2022-08-20T21:30:42.542Z,19.30
2022-08-20T21:33:16.164Z,19.20
2022-08-20T21:35:49.534Z,19.20
2022-08-20T21:38:16.223Z,19.20
2022-08-20T21:40:42.906Z,19.20
2022-08-20T21:43:19.533Z,19.20
2022-08-20T21:45:53.587Z,19.20
2022-08-20T21:48:26.659Z,19.20
2022-08-20T21:50:53.264Z,19.20
2022-08-20T21:53:33.619Z,19.20
2022-08-20T21:56:00.910Z,19.20
2022-08-20T21:58:34.548Z,19.20
2022-08-20T22:01:10.589Z,19.20
2022-08-20T22:03:38.748Z,19.20
2022-08-20T22:06:18.532Z,19.20
2022-08-20T22:08:51.562Z,19.20
2022-08-20T22:11:18.617Z,19.20
2022-08-20T22:13:45.773Z,19.20
2022-08-20T22:16:22.545Z,19.10
2022-08-20T22:18:56.553Z,19.20
2022-08-20T22:21:26.970Z,19.20
2022-08-20T22:24:04.568Z,19.20
2022-08-20T22:26:34.018Z,19.10
2022-08-20T22:29:01.495Z,19.20
2022-08-20T22:31:37.549Z,19.10
2022-08-20T22:34:04.718Z,19.20
2022-08-20T22:36:39.557Z,19.20
2022-08-20T22:39:07.053Z,19.20
2022-08-20T22:41:33.933Z,19.10
2022-08-20T22:44:07.557Z,19.10
2022-08-20T22:46:37.736Z,19.10
2022-08-20T22:49:11.538Z,19.20
2022-08-20T22:51:40.588Z,19.10
2022-08-20T22:54:25.543Z,19.10
2022-08-20T22:56:53.297Z,19.10
2022-08-20T22:59:27.573Z,19.10
2022-08-20T23:01:54.475Z,19.10
2022-08-20T23:04:37.576Z,19.10
2022-08-20T23:07:06.877Z,19.00
2022-08-20T23:09:39.728Z,19.00
2022-08-20T23:12:07.537Z,19.00
2022-08-20T23:14:41.533Z,19.00
2022-08-20T23:17:18.600Z,19.00
2022-08-20T23:19:53.615Z,19.00
2022-08-20T23:22:27.567Z,19.00
2022-08-20T23:24:57.344Z,19.00
2022-08-20T23:27:27.242Z,19.00
2022-08-20T23:30:00.557Z,19.00
2022-08-20T23:32:27.182Z,19.00
2022-08-20T23:35:00.565Z,19.00
2022-08-20T23:37:27.248Z,19.00
2022-08-20T23:40:00.867Z,19.00
2022-08-20T23:42:27.613Z,18.90
2022-08-20T23:45:00.541Z,19.00
2022-08-20T23:47:28.583Z,19.00
2022-08-20T23:50:01.557Z,18.90
2022-08-20T23:52:28.211Z,18.90
2022-08-20T23:55:08.569Z,18.90
2022-08-20T23:57:35.471Z,18.90
